createdAt,value
2022-12-29T00:00:00.206Z,5.30
2022-12-29T00:02:27.821Z,5.93
2022-12-29T00:04:55.415Z,4.40
2022-12-29T00:07:22.378Z,4.85
2022-12-29T00:09:49.576Z,3.45
2022-12-29T00:12:16.542Z,4.22
2022-12-29T00:15:02.241Z,4.32
2022-12-29T00:17:29.566Z,3.80
2022-12-29T00:20:15.216Z,4.05
2022-12-29T00:23:01.137Z,5.35
2022-12-29T00:25:46.937Z,2.72
2022-12-29T00:28:32.636Z,2.80
2022-12-29T00:31:20.127Z,3.97
2022-12-29T00:34:06.036Z,4.07
2022-12-29T00:36:42.243Z,3.90
2022-12-29T00:39:30.908Z,2.78
2022-12-29T00:42:16.698Z,2.10
2022-12-29T00:44:44.404Z,2.58
2022-12-29T00:47:11.332Z,1.90
2022-12-29T00:49:39.146Z,2.33
2022-12-29T00:52:08.733Z,2.83
2022-12-29T00:54:39.168Z,2.85
2022-12-29T00:57:07.973Z,2.67
2022-12-29T00:59:39.936Z,2.42
2022-12-29T01:02:07.798Z,2.88
2022-12-29T01:04:35.490Z,1.88
2022-12-29T01:07:02.582Z,2.35
2022-12-29T01:09:48.556Z,1.90
2022-12-29T01:12:15.676Z,1.83
2022-12-29T01:14:42.703Z,2.65
2022-12-29T01:17:09.855Z,3.60
2022-12-29T01:19:36.897Z,1.75
2022-12-29T01:22:04.253Z,4.13
2022-12-29T01:24:31.213Z,3.42
2022-12-29T01:26:58.483Z,1.85
2022-12-29T01:29:25.997Z,3.10
2022-12-29T01:31:53.636Z,2.38
2022-12-29T01:34:20.809Z,2.70
2022-12-29T01:36:47.937Z,1.30
2022-12-29T01:39:15.054Z,2.08
2022-12-29T01:41:43.376Z,2.50
2022-12-29T01:44:47.815Z,1.50
2022-12-29T01:47:49.569Z,1.85
2022-12-29T01:50:25.538Z,2.47
2022-12-29T01:53:08.958Z,4.40
2022-12-29T01:55:40.976Z,2.40
2022-12-29T01:58:10.216Z,3.67
2022-12-29T02:00:38.571Z,3.05
2022-12-29T02:03:08.140Z,6.18
2022-12-29T02:05:44.095Z,3.72
2022-12-29T02:08:14.263Z,3.60
2022-12-29T02:10:42.076Z,1.60
2022-12-29T02:13:10.595Z,1.88
2022-12-29T02:15:49.446Z,2.42
2022-12-29T02:21:13.334Z,5.88
2022-12-29T02:24:03.458Z,5.47
2022-12-29T02:26:36.383Z,2.00
2022-12-29T02:29:28.029Z,4.65
2022-12-29T02:32:19.645Z,4.32
2022-12-29T02:34:56.424Z,7.10
2022-12-29T02:37:25.138Z,4.95
2022-12-29T02:39:56.841Z,3.70
2022-12-29T02:42:34.460Z,2.13
2022-12-29T02:45:25.189Z,6.22
2022-12-29T02:48:19.103Z,6.93
2022-12-29T02:50:55.656Z,2.33
2022-12-29T02:53:44.898Z,2.75
2022-12-29T02:56:12.017Z,3.22
2022-12-29T02:58:39.164Z,5.15
2022-12-29T03:01:23.260Z,5.43
2022-12-29T03:04:21.593Z,7.72
2022-12-29T03:07:24.211Z,4.65
2022-12-29T03:10:09.938Z,3.30
2022-12-29T03:13:21.634Z,2.13
2022-12-29T03:16:17.298Z,4.25
2022-12-29T03:18:51.663Z,1.60
2022-12-29T03:21:50.593Z,2.47
2022-12-29T03:24:19.976Z,2.65
2022-12-29T03:26:48.640Z,3.30
2022-12-29T03:29:16.674Z,8.38
2022-12-29T03:31:45.968Z,7.85
2022-12-29T03:34:14.241Z,4.10
2022-12-29T03:36:48.302Z,4.50
2022-12-29T03:39:15.434Z,8.52
2022-12-29T03:41:44.312Z,5.63
2022-12-29T03:44:12.623Z,6.72
2022-12-29T03:46:39.788Z,10.82
2022-12-29T03:49:07.624Z,6.40
2022-12-29T03:51:34.840Z,4.13
2022-12-29T03:54:02.766Z,9.25
2022-12-29T03:56:30.344Z,10.48
2022-12-29T03:58:58.923Z,10.05
2022-12-29T04:01:31.828Z,7.47
2022-12-29T04:03:58.901Z,7.78
2022-12-29T04:06:26.468Z,5.70
2022-12-29T04:09:03.853Z,5.15
2022-12-29T04:11:34.818Z,6.65
2022-12-29T04:14:04.134Z,6.60
2022-12-29T04:16:34.755Z,8.10
2022-12-29T04:19:01.934Z,7.15
2022-12-29T04:21:29.255Z,8.70
2022-12-29T04:23:56.812Z,8.98
2022-12-29T04:26:24.280Z,8.90
2022-12-29T04:29:00.937Z,5.32
2022-12-29T04:31:40.756Z,6.03
2022-12-29T04:34:08.285Z,9.93
2022-12-29T04:36:35.325Z,5.72
2022-12-29T04:39:02.433Z,9.40
2022-12-29T04:41:29.435Z,14.30
2022-12-29T04:43:56.716Z,5.32
2022-12-29T04:46:23.888Z,13.63
2022-12-29T04:49:01.862Z,13.70
2022-12-29T04:51:49.174Z,10.00
2022-12-29T04:54:18.074Z,9.45
2022-12-29T04:56:50.794Z,8.57
2022-12-29T04:59:18.746Z,9.27
2022-12-29T05:01:48.825Z,9.27
2022-12-29T05:04:16.497Z,18.45
2022-12-29T05:06:44.524Z,12.80
2022-12-29T05:09:11.717Z,6.97
2022-12-29T05:11:39.361Z,6.85
2022-12-29T05:14:06.670Z,6.65
2022-12-29T05:16:36.090Z,13.25
2022-12-29T05:19:03.166Z,10.05
2022-12-29T05:21:32.366Z,6.93
2022-12-29T05:23:59.779Z,11.10
2022-12-29T05:26:27.517Z,8.75
2022-12-29T05:29:01.142Z,7.07
2022-12-29T05:31:28.375Z,8.35
2022-12-29T05:33:55.533Z,6.68
2022-12-29T05:36:22.574Z,10.45
2022-12-29T05:38:53.754Z,8.40
2022-12-29T05:41:21.056Z,8.93
2022-12-29T05:43:47.902Z,4.32
2022-12-29T05:46:41.317Z,6.90
2022-12-29T05:49:11.535Z,5.93
2022-12-29T05:51:55.336Z,9.00
2022-12-29T05:54:22.976Z,6.88
2022-12-29T05:56:49.991Z,8.40
2022-12-29T05:59:17.133Z,12.80
2022-12-29T06:01:44.319Z,10.88
2022-12-29T06:04:12.294Z,8.55
2022-12-29T06:06:41.016Z,8.30
2022-12-29T06:09:13.475Z,5.68
2022-12-29T06:11:40.596Z,8.80
2022-12-29T06:14:08.825Z,9.05
2022-12-29T06:16:36.229Z,14.13
2022-12-29T06:19:05.735Z,5.75
2022-12-29T06:21:32.774Z,7.15
2022-12-29T06:24:01.564Z,15.95
2022-12-29T06:26:28.626Z,12.30
2022-12-29T06:28:56.335Z,6.65
2022-12-29T06:31:23.493Z,10.13
2022-12-29T06:33:50.597Z,6.18
2022-12-29T06:36:18.341Z,15.00
2022-12-29T06:38:45.368Z,13.07
2022-12-29T06:41:12.939Z,8.20
2022-12-29T06:46:37.292Z,12.77
2022-12-29T06:49:04.477Z,11.02
2022-12-29T06:51:31.497Z,8.93
2022-12-29T06:53:58.569Z,11.55
2022-12-29T06:56:25.535Z,10.77
2022-12-29T06:58:52.565Z,15.02
2022-12-29T07:01:19.628Z,14.23
2022-12-29T07:03:47.276Z,6.18
2022-12-29T07:06:14.489Z,14.77
2022-12-29T07:08:41.482Z,15.60
2022-12-29T07:11:08.506Z,11.23
2022-12-29T07:13:35.991Z,13.82
2022-12-29T07:16:07.776Z,13.77
2022-12-29T07:18:34.974Z,15.82
2022-12-29T07:21:02.081Z,17.70
2022-12-29T07:23:29.436Z,17.70
2022-12-29T07:26:08.031Z,15.95
2022-12-29T07:28:36.079Z,17.60
2022-12-29T07:31:03.332Z,12.55
2022-12-29T07:33:30.996Z,15.07
2022-12-29T07:35:58.547Z,8.93
2022-12-29T07:38:25.618Z,12.13
2022-12-29T07:40:52.577Z,11.60
2022-12-29T07:43:19.735Z,12.40
2022-12-29T07:46:02.742Z,10.88
2022-12-29T07:48:29.786Z,12.80
2022-12-29T07:50:56.678Z,5.28
2022-12-29T07:53:23.819Z,15.48
2022-12-29T07:55:50.986Z,5.63
2022-12-29T07:58:19.906Z,8.65
2022-12-29T08:00:46.814Z,16.10
2022-12-29T08:03:13.977Z,8.77
2022-12-29T08:05:41.374Z,8.73
2022-12-29T08:08:08.477Z,11.65
2022-12-29T08:10:35.457Z,7.65
2022-12-29T08:13:02.496Z,13.98
2022-12-29T08:15:32.513Z,10.30
2022-12-29T08:18:00.236Z,13.75
2022-12-29T08:20:26.999Z,10.50
2022-12-29T08:22:54.114Z,16.75
2022-12-29T08:25:21.105Z,10.13
2022-12-29T08:27:48.623Z,11.73
2022-12-29T08:30:16.160Z,11.25
2022-12-29T08:32:43.339Z,13.00
2022-12-29T08:35:10.395Z,10.70
2022-12-29T08:37:37.951Z,15.63
2022-12-29T08:40:05.457Z,12.20
2022-12-29T08:42:33.322Z,12.05
2022-12-29T08:45:00.716Z,16.67
2022-12-29T08:47:28.383Z,12.73
2022-12-29T08:49:55.488Z,21.95
2022-12-29T08:52:22.647Z,19.48
2022-12-29T08:54:51.133Z,21.90
2022-12-29T08:57:18.252Z,18.13
2022-12-29T09:00:03.606Z,16.95
2022-12-29T09:02:30.975Z,21.80
2022-12-29T09:05:01.557Z,23.70
2022-12-29T09:07:28.668Z,16.15
2022-12-29T09:09:55.692Z,15.80
2022-12-29T09:12:22.712Z,16.35
2022-12-29T09:14:51.177Z,12.43
2022-12-29T09:17:36.617Z,18.05
2022-12-29T09:20:04.495Z,15.48
2022-12-29T09:22:31.607Z,15.57
2022-12-29T09:24:58.773Z,15.18
2022-12-29T09:27:25.553Z,14.55
2022-12-29T09:29:52.410Z,15.43
2022-12-29T09:32:19.877Z,19.83
2022-12-29T09:34:48.122Z,21.98
2022-12-29T09:37:15.117Z,17.05
2022-12-29T09:39:41.987Z,21.02
2022-12-29T09:42:15.937Z,23.80
2022-12-29T09:45:13.944Z,23.00
2022-12-29T09:47:42.586Z,25.65
2022-12-29T09:50:39.004Z,29.70
2022-12-29T09:53:20.977Z,18.80
2022-12-29T09:55:53.445Z,22.70
2022-12-29T09:58:43.100Z,28.48
2022-12-29T10:01:22.916Z,19.45
2022-12-29T10:03:53.213Z,22.25
2022-12-29T10:06:32.864Z,19.48
2022-12-29T10:09:12.029Z,18.90
2022-12-29T10:11:58.151Z,18.42
2022-12-29T10:14:34.122Z,24.65
2022-12-29T10:17:16.536Z,15.48
2022-12-29T10:19:51.653Z,20.60
2022-12-29T10:22:57.370Z,24.83
2022-12-29T10:25:31.079Z,21.65
2022-12-29T10:28:01.715Z,19.88
2022-12-29T10:30:29.849Z,20.15
2022-12-29T10:33:00.289Z,22.50
2022-12-29T10:35:34.070Z,17.15
2022-12-29T10:38:03.455Z,19.55
2022-12-29T10:40:37.638Z,29.60
2022-12-29T10:43:16.856Z,13.95
2022-12-29T10:45:46.780Z,25.88
2022-12-29T10:48:38.145Z,21.80
2022-12-29T10:51:07.414Z,20.17
2022-12-29T10:53:40.170Z,17.35
2022-12-29T10:56:33.995Z,22.52
2022-12-29T10:59:08.217Z,12.98
2022-12-29T11:01:40.954Z,19.40
2022-12-29T11:04:49.661Z,21.42
2022-12-29T11:07:22.162Z,23.73
2022-12-29T11:09:52.675Z,22.02
2022-12-29T11:12:21.403Z,23.30
2022-12-29T11:14:48.930Z,18.48
2022-12-29T11:17:18.555Z,24.15
2022-12-29T11:19:45.455Z,15.38
2022-12-29T11:22:31.066Z,17.52
2022-12-29T11:25:08.416Z,22.25
2022-12-29T11:27:36.135Z,22.33
2022-12-29T11:30:04.616Z,19.20
2022-12-29T11:32:31.798Z,15.88
2022-12-29T11:34:59.965Z,14.10
2022-12-29T11:37:33.155Z,8.68
2022-12-29T11:40:22.545Z,13.95
2022-12-29T11:42:54.067Z,10.77
2022-12-29T11:45:23.611Z,8.48
2022-12-29T11:48:15.430Z,11.68
2022-12-29T11:50:43.180Z,7.95
2022-12-29T11:53:26.250Z,9.82
2022-12-29T11:55:59.032Z,14.52
2022-12-29T11:58:38.091Z,47.17
2022-12-29T12:01:15.657Z,12.27
2022-12-29T12:03:51.320Z,14.43
2022-12-29T12:06:22.063Z,9.10
2022-12-29T12:08:56.146Z,7.18
2022-12-29T12:11:44.467Z,10.70
2022-12-29T12:14:33.075Z,6.78
2022-12-29T12:17:38.710Z,12.85
2022-12-29T12:20:45.149Z,14.20
2022-12-29T12:23:27.279Z,11.57
2022-12-29T12:26:02.969Z,8.75
2022-12-29T12:28:47.386Z,8.70
2022-12-29T12:31:35.659Z,10.10
2022-12-29T12:34:07.731Z,9.38
2022-12-29T12:36:56.643Z,11.52
2022-12-29T12:39:35.955Z,12.20
2022-12-29T12:42:19.644Z,7.40
2022-12-29T12:45:02.601Z,15.63
2022-12-29T12:48:07.296Z,11.77
2022-12-29T12:50:43.776Z,10.27
2022-12-29T12:53:29.455Z,9.00
2022-12-29T12:55:59.700Z,10.20
2022-12-29T12:58:45.133Z,9.82
2022-12-29T13:01:15.344Z,4.78
2022-12-29T13:03:54.751Z,9.20
2022-12-29T13:06:36.925Z,9.23
2022-12-29T13:09:26.096Z,11.05
2022-12-29T13:12:02.166Z,9.00
2022-12-29T13:14:31.983Z,7.30
2022-12-29T13:17:17.081Z,6.60
2022-12-29T13:19:50.243Z,7.20
2022-12-29T13:22:31.295Z,12.10
2022-12-29T13:25:13.823Z,8.48
2022-12-29T13:27:48.607Z,7.43
2022-12-29T13:30:24.046Z,9.77
2022-12-29T13:33:22.377Z,8.90
2022-12-29T13:36:15.424Z,7.88
2022-12-29T13:38:48.715Z,7.75
2022-12-29T13:41:32.110Z,12.95
2022-12-29T13:44:00.065Z,16.17
2022-12-29T13:46:31.189Z,4.55
2022-12-29T13:49:09.295Z,5.28
2022-12-29T13:51:37.305Z,6.97
2022-12-29T13:54:13.363Z,6.50
2022-12-29T13:57:02.053Z,11.90
2022-12-29T13:59:42.252Z,6.80
2022-12-29T14:02:18.304Z,7.72
2022-12-29T14:05:04.788Z,14.65
2022-12-29T14:07:38.766Z,15.05
2022-12-29T14:10:06.932Z,13.98
2022-12-29T14:12:37.275Z,10.32
2022-12-29T14:15:16.616Z,36.00
2022-12-29T14:17:44.188Z,94.03
2022-12-29T14:20:24.314Z,10.98
2022-12-29T14:23:07.951Z,15.52
2022-12-29T14:26:10.824Z,22.80
2022-12-29T14:28:48.743Z,17.50
2022-12-29T14:31:16.056Z,10.70
2022-12-29T14:34:09.863Z,11.73
2022-12-29T14:36:41.871Z,11.50
2022-12-29T14:39:30.493Z,11.50
2022-12-29T14:42:18.632Z,7.82
2022-12-29T14:45:11.441Z,14.77
2022-12-29T14:47:43.992Z,15.02
2022-12-29T14:50:19.061Z,11.23
2022-12-29T14:52:50.076Z,16.08
2022-12-29T14:55:16.923Z,9.65
2022-12-29T14:57:58.174Z,8.85
2022-12-29T15:00:30.908Z,11.30
2022-12-29T15:03:06.873Z,6.15
2022-12-29T15:05:35.665Z,8.88
2022-12-29T15:08:04.176Z,13.73
2022-12-29T15:10:38.006Z,10.93
2022-12-29T15:13:11.179Z,9.15
2022-12-29T15:15:39.430Z,20.45
2022-12-29T15:18:35.883Z,11.35
2022-12-29T15:21:05.930Z,12.15
2022-12-29T15:23:36.221Z,14.38
2022-12-29T15:26:08.453Z,16.17
2022-12-29T15:28:41.157Z,9.95
2022-12-29T15:31:14.371Z,11.82
2022-12-29T15:33:42.999Z,14.70
2022-12-29T15:36:29.553Z,17.30
2022-12-29T15:38:57.836Z,26.25
2022-12-29T15:41:33.624Z,23.45
2022-12-29T15:44:09.932Z,35.10
2022-12-29T15:46:37.525Z,19.55
2022-12-29T15:49:09.654Z,28.08
2022-12-29T15:51:39.605Z,30.25
2022-12-29T15:54:07.488Z,18.58
2022-12-29T15:56:34.967Z,17.88
2022-12-29T15:59:02.963Z,17.02
2022-12-29T16:01:34.016Z,22.95
2022-12-29T16:04:04.557Z,19.40
2022-12-29T16:06:39.695Z,13.98
2022-12-29T16:09:08.410Z,16.23
2022-12-29T16:11:40.182Z,15.32
2022-12-29T16:14:19.243Z,19.25
2022-12-29T16:16:47.922Z,17.67
2022-12-29T16:19:20.666Z,12.23
2022-12-29T16:21:48.024Z,14.80
2022-12-29T16:24:21.663Z,13.20
2022-12-29T16:26:50.919Z,16.55
2022-12-29T16:29:18.843Z,10.95
2022-12-29T16:32:01.868Z,12.38
2022-12-29T16:34:40.270Z,15.82
2022-12-29T16:37:29.099Z,15.15
2022-12-29T16:39:56.381Z,16.27
2022-12-29T16:42:47.227Z,12.68
2022-12-29T16:45:20.806Z,15.18
2022-12-29T16:48:05.956Z,13.35
2022-12-29T16:53:00.203Z,10.07
2022-12-29T16:55:27.212Z,20.45
2022-12-29T16:57:57.507Z,25.60
2022-12-29T17:00:27.109Z,24.63
2022-12-29T17:02:57.216Z,19.48
2022-12-29T17:05:24.683Z,15.38
2022-12-29T17:07:52.444Z,14.85
2022-12-29T17:10:20.364Z,12.73
2022-12-29T17:12:48.925Z,21.10
2022-12-29T17:15:35.349Z,21.13
2022-12-29T17:18:02.481Z,22.63
2022-12-29T17:20:31.542Z,12.18
2022-12-29T17:22:59.780Z,16.95
2022-12-29T17:25:34.061Z,15.10
2022-12-29T17:28:04.377Z,24.92
2022-12-29T17:30:34.235Z,22.85
2022-12-29T17:33:03.941Z,34.97
2022-12-29T17:35:31.513Z,22.63
2022-12-29T17:37:58.654Z,32.05
2022-12-29T17:40:28.509Z,20.17
2022-12-29T17:42:57.396Z,21.35
2022-12-29T17:45:29.486Z,22.95
2022-12-29T17:47:57.572Z,24.38
2022-12-29T17:50:26.225Z,26.42
2022-12-29T17:53:00.815Z,18.70
2022-12-29T17:55:36.759Z,17.30
2022-12-29T17:58:22.899Z,13.85
2022-12-29T18:00:52.710Z,13.13
2022-12-29T18:03:41.031Z,14.82
2022-12-29T18:06:12.056Z,18.98
2022-12-29T18:08:40.261Z,19.60
2022-12-29T18:11:22.440Z,13.70
2022-12-29T18:13:49.735Z,9.98
2022-12-29T18:16:17.268Z,10.15
2022-12-29T18:18:45.151Z,10.85
2022-12-29T18:21:18.042Z,20.67
2022-12-29T18:23:45.447Z,12.07
2022-12-29T18:26:28.025Z,17.88
2022-12-29T18:28:56.689Z,14.48
2022-12-29T18:31:31.735Z,17.30
2022-12-29T18:34:01.394Z,24.95
2022-12-29T18:36:29.436Z,15.48
2022-12-29T18:38:56.724Z,22.63
2022-12-29T18:41:32.081Z,12.50
2022-12-29T18:44:00.005Z,25.13
2022-12-29T18:46:27.570Z,19.42
2022-12-29T18:48:55.149Z,18.70
2022-12-29T18:51:24.371Z,16.02
2022-12-29T18:53:54.292Z,19.75
2022-12-29T18:56:23.095Z,21.05
2022-12-29T18:58:51.903Z,14.15
2022-12-29T19:01:21.314Z,24.48
2022-12-29T19:03:48.554Z,17.27
2022-12-29T19:06:15.780Z,17.23
2022-12-29T19:08:43.688Z,16.55
2022-12-29T19:11:11.102Z,21.48
2022-12-29T19:13:38.413Z,15.27
2022-12-29T19:16:06.827Z,20.30
2022-12-29T19:19:05.690Z,14.85
2022-12-29T19:21:23.961Z,19.90
2022-12-29T19:23:52.187Z,22.20
2022-12-29T19:26:31.365Z,25.73
2022-12-29T19:31:25.641Z,42.72
2022-12-29T19:33:53.955Z,16.38
2022-12-29T19:36:21.612Z,15.25
2022-12-29T19:38:48.965Z,12.45
2022-12-29T19:41:16.093Z,12.43
2022-12-29T19:43:44.250Z,17.58
2022-12-29T19:46:16.151Z,17.75
2022-12-29T19:48:43.543Z,20.02
2022-12-29T19:51:13.502Z,22.88
2022-12-29T19:53:40.499Z,16.48
2022-12-29T19:56:08.602Z,21.02
2022-12-29T19:58:39.542Z,16.73
2022-12-29T20:01:13.505Z,15.73
2022-12-29T20:03:41.343Z,24.83
2022-12-29T20:06:09.977Z,14.77
2022-12-29T20:08:38.283Z,17.52
2022-12-29T20:11:13.673Z,17.35
2022-12-29T20:13:41.358Z,14.20
2022-12-29T20:16:12.825Z,28.70
2022-12-29T20:18:40.665Z,21.65
2022-12-29T20:21:10.121Z,17.75
2022-12-29T20:23:39.522Z,14.98
2022-12-29T20:26:09.275Z,19.85
2022-12-29T20:28:36.426Z,20.48
2022-12-29T20:31:06.782Z,18.92
2022-12-29T20:33:35.892Z,25.67
2022-12-29T20:36:11.944Z,27.70
2022-12-29T20:38:39.341Z,30.75
2022-12-29T20:41:06.787Z,22.13
2022-12-29T20:43:34.329Z,17.58
2022-12-29T20:46:01.490Z,18.30
2022-12-29T20:48:30.012Z,16.05
2022-12-29T20:51:00.786Z,17.65
2022-12-29T20:53:28.820Z,18.13
2022-12-29T20:56:01.270Z,19.50
2022-12-29T20:58:28.614Z,15.27
2022-12-29T21:00:55.868Z,18.83
2022-12-29T21:03:23.339Z,21.48
2022-12-29T21:05:52.628Z,28.02
2022-12-29T21:08:21.620Z,19.75
2022-12-29T21:10:49.682Z,22.08
2022-12-29T21:13:17.099Z,36.17
2022-12-29T21:15:45.533Z,25.35
2022-12-29T21:18:13.941Z,25.95
2022-12-29T21:20:41.419Z,26.50
2022-12-29T21:23:08.421Z,22.70
2022-12-29T21:25:38.468Z,27.00
2022-12-29T21:28:12.363Z,31.52
2022-12-29T21:30:39.832Z,19.45
2022-12-29T21:33:06.851Z,32.28
2022-12-29T21:35:40.376Z,38.33
2022-12-29T21:38:08.089Z,26.85
2022-12-29T21:40:35.962Z,22.98
2022-12-29T21:43:03.661Z,16.20
2022-12-29T21:45:34.647Z,20.65
2022-12-29T21:48:24.540Z,19.17
2022-12-29T21:51:12.924Z,10.23
2022-12-29T21:53:42.113Z,14.40
2022-12-29T21:56:10.949Z,15.18
2022-12-29T21:58:58.036Z,19.55
2022-12-29T22:01:45.444Z,13.20
2022-12-29T22:04:32.940Z,20.70
2022-12-29T22:07:18.694Z,40.05
2022-12-29T22:10:04.333Z,20.05
2022-12-29T22:12:51.329Z,21.98
2022-12-29T22:15:18.429Z,21.83
2022-12-29T22:17:50.537Z,19.45
2022-12-29T22:20:18.853Z,30.20
2022-12-29T22:22:46.568Z,30.05
2022-12-29T22:25:14.293Z,20.88
2022-12-29T22:27:41.495Z,23.70
2022-12-29T22:30:09.691Z,22.88
2022-12-29T22:32:37.122Z,19.85
2022-12-29T22:35:08.158Z,28.73
2022-12-29T22:37:36.720Z,15.05
2022-12-29T22:40:05.701Z,15.50
2022-12-29T22:42:33.529Z,14.07
2022-12-29T22:45:00.512Z,10.25
2022-12-29T22:47:27.621Z,10.93
2022-12-29T22:49:54.762Z,15.10
2022-12-29T22:52:21.953Z,10.63
2022-12-29T22:54:49.344Z,13.07
2022-12-29T22:57:16.245Z,12.20
2022-12-29T22:59:43.335Z,14.60
2022-12-29T23:02:10.735Z,12.98
2022-12-29T23:07:25.629Z,14.65
2022-12-29T23:09:52.636Z,18.10
2022-12-29T23:12:19.731Z,8.32
2022-12-29T23:14:46.663Z,26.67
2022-12-29T23:17:13.795Z,6.10
2022-12-29T23:19:40.763Z,13.50
2022-12-29T23:22:07.875Z,9.80
2022-12-29T23:24:34.853Z,9.43
2022-12-29T23:27:01.993Z,14.93
2022-12-29T23:29:29.350Z,16.73
2022-12-29T23:31:56.441Z,15.80
2022-12-29T23:34:23.529Z,8.88
2022-12-29T23:36:51.228Z,11.10
2022-12-29T23:39:24.677Z,8.98
2022-12-29T23:41:52.251Z,12.35
2022-12-29T23:44:19.869Z,9.35
2022-12-29T23:46:47.612Z,11.25
2022-12-29T23:49:14.797Z,15.15
2022-12-29T23:51:42.101Z,12.13
2022-12-29T23:54:09.109Z,7.53
2022-12-29T23:56:36.359Z,11.45
2022-12-29T23:59:05.350Z,17.40
